Time;durP1;ratioP1;P1;durP2;ratioP2;P2;SDS_P1;SDS_P2;PMS_P1;PMS_P2;Temp;Humidity;BMP_temperature;BMP_pressure;BME280_temperature;BME280_humidity;BME280_pressure;Samples;Min_cycle;Max_cycle;Signal;HPM_P1;HPM_P2
2022/01/24 00:00:08;;;;;;;68.72;40.05;;;2.60;99.90;;;;;;5050826;28;20047;-67
2022/01/24 00:03:13;;;;;;;70.72;41.80;;;2.70;99.90;;;;;;5050500;28;20044;-67
2022/01/24 00:06:17;;;;;;;74.55;41.65;;;2.70;99.90;;;;;;5052153;28;20047;-67
2022/01/24 00:09:22;;;;;;;77.53;42.55;;;2.70;99.90;;;;;;5050253;28;20051;-67
2022/01/24 00:15:59;;;;;;;69.10;41.35;;;2.80;99.90;;;;;;5049881;28;20238;-67
2022/01/24 00:28:53;;;;;;;65.97;40.50;;;2.80;99.90;;;;;;5052108;28;20047;-67
2022/01/24 00:31:56;;;;;;;73.30;40.67;;;2.70;99.90;;;;;;5049560;28;20048;-67
2022/01/24 00:35:01;;;;;;;66.20;37.25;;;2.70;99.90;;;;;;5049901;28;20036;-68
2022/01/24 00:38:05;;;;;;;62.78;37.05;;;2.60;99.90;;;;;;5050606;28;20044;-67
2022/01/24 00:41:12;;;;;;;66.60;36.92;;;2.60;99.90;;;;;;5048481;28;20044;-68
2022/01/24 00:57:40;;;;;;;66.38;37.95;;;2.30;99.90;;;;;;5050633;28;20072;-67
2022/01/24 01:00:44;;;;;;;69.47;39.38;;;2.40;99.90;;;;;;5053787;28;20383;-67
2022/01/24 01:03:48;;;;;;;71.07;41.80;;;2.40;99.90;;;;;;5056094;28;20395;-68
2022/01/24 01:06:53;;;;;;;72.07;39.70;;;2.40;99.90;;;;;;5057510;28;20495;-67
2022/01/24 01:20:08;;;;;;;64.07;35.78;;;2.40;99.90;;;;;;5054880;28;20044;-67
2022/01/24 01:23:12;;;;;;;59.05;35.58;;;2.40;99.90;;;;;;5054823;28;20043;-67
2022/01/24 01:26:30;;;;;;;57.58;34.88;;;2.50;99.90;;;;;;5055074;28;20048;-67
2022/01/24 01:33:04;;;;;;;45.97;28.23;;;2.60;99.90;;;;;;5053472;28;20043;-67
2022/01/24 01:36:17;;;;;;;44.97;26.38;;;2.60;99.90;;;;;;5053116;28;20051;-67
2022/01/24 01:52:43;;;;;;;53.55;26.65;;;2.60;99.90;;;;;;5053000;28;20048;-67
2022/01/24 01:55:46;;;;;;;49.03;27.85;;;2.60;99.90;;;;;;5055053;28;20056;-67
2022/01/24 01:58:52;;;;;;;47.05;27.35;;;2.50;99.90;;;;;;5055191;28;20048;-68
2022/01/24 02:01:59;;;;;;;47.85;27.38;;;2.40;99.90;;;;;;5055376;28;20534;-68
2022/01/24 02:05:04;;;;;;;51.38;26.98;;;2.40;99.90;;;;;;5054701;28;20044;-67
2022/01/24 02:08:09;;;;;;;50.10;25.00;;;2.30;99.90;;;;;;5054419;28;20048;-67
2022/01/24 02:11:17;;;;;;;43.00;24.00;;;2.20;99.90;;;;;;5055093;28;20051;-67
2022/01/24 02:14:28;;;;;;;42.03;22.50;;;2.20;99.90;;;;;;5053411;28;20059;-67
2022/01/24 02:17:57;;;;;;;33.20;19.20;;;2.20;99.90;;;;;;5054218;28;20052;-67
2022/01/24 02:21:25;;;;;;;27.48;15.77;;;2.20;99.90;;;;;;5054139;28;20044;-67
2022/01/24 02:24:40;;;;;;;23.20;13.82;;;2.10;99.90;;;;;;5055114;28;20052;-67
2022/01/24 02:27:53;;;;;;;22.92;12.95;;;2.10;99.90;;;;;;5054136;28;20048;-67
2022/01/24 02:34:25;;;;;;;21.17;12.05;;;2.00;99.90;;;;;;5052351;28;20043;-67
2022/01/24 02:37:30;;;;;;;17.83;10.38;;;2.10;99.90;;;;;;5052384;28;20071;-67
2022/01/24 02:40:35;;;;;;;21.83;10.07;;;2.10;99.90;;;;;;5052295;28;20052;-67
2022/01/24 02:50:08;;;;;;;47.25;27.58;;;1.80;99.90;;;;;;5052344;28;20052;-67
2022/01/24 02:53:13;;;;;;;45.17;26.58;;;1.60;99.90;;;;;;5054933;28;20048;-67
2022/01/24 02:56:18;;;;;;;42.95;25.38;;;1.50;99.90;;;;;;5051487;28;20056;-67
2022/01/24 02:59:25;;;;;;;31.50;19.88;;;1.40;99.90;;;;;;5051435;28;20044;-67
2022/01/24 03:02:30;;;;;;;34.17;20.15;;;1.40;99.90;;;;;;5051181;28;20044;-67
2022/01/24 03:05:34;;;;;;;26.38;16.58;;;1.30;99.90;;;;;;5050798;28;20043;-67
2022/01/24 03:08:41;;;;;;;41.88;22.45;;;1.10;99.90;;;;;;5050372;28;20506;-67
2022/01/24 03:14:54;;;;;;;46.75;26.60;;;1.00;99.90;;;;;;5050453;28;20052;-67
2022/01/24 03:17:59;;;;;;;49.42;26.52;;;1.00;99.90;;;;;;5050181;28;20514;-67
2022/01/24 03:21:03;;;;;;;55.22;29.15;;;1.00;99.90;;;;;;5052885;28;20048;-67
2022/01/24 03:24:07;;;;;;;51.72;28.52;;;0.90;99.90;;;;;;5052691;28;20040;-67
2022/01/24 03:27:11;;;;;;;55.58;30.52;;;0.90;99.90;;;;;;5050407;28;20040;-67
2022/01/24 03:30:17;;;;;;;52.78;30.33;;;0.90;99.90;;;;;;5049851;28;20052;-67
2022/01/24 03:33:21;;;;;;;62.15;33.78;;;0.80;99.90;;;;;;5050608;28;20048;-67
2022/01/24 03:36:25;;;;;;;51.15;28.10;;;0.80;99.90;;;;;;5050521;28;20052;-67
2022/01/24 03:39:29;;;;;;;65.10;34.95;;;0.80;99.90;;;;;;5049819;28;20052;-67
2022/01/24 03:42:33;;;;;;;52.10;31.08;;;0.90;99.90;;;;;;5051132;28;20498;-67
2022/01/24 03:45:44;;;;;;;50.97;29.25;;;0.80;99.90;;;;;;5049705;28;20043;-67
2022/01/24 03:49:07;;;;;;;52.78;29.75;;;0.90;99.90;;;;;;5049400;28;20044;-67
2022/01/24 03:52:14;;;;;;;51.13;30.35;;;0.80;99.90;;;;;;5050941;28;20124;-67
2022/01/24 03:55:18;;;;;;;56.10;30.58;;;0.80;99.90;;;;;;5049664;28;20048;-67
2022/01/24 03:58:23;;;;;;;53.50;28.52;;;0.80;99.90;;;;;;5050653;28;20052;-67
2022/01/24 04:01:27;;;;;;;47.53;26.65;;;0.80;99.90;;;;;;5051331;28;20047;-67
2022/01/24 04:04:31;;;;;;;44.78;26.20;;;0.80;99.90;;;;;;5050163;28;20044;-67
2022/01/24 04:07:35;;;;;;;45.67;25.15;;;0.80;99.90;;;;;;5050300;28;20395;-67
2022/01/24 04:10:52;;;;;;;46.15;26.88;;;0.80;99.90;;;;;;5049949;28;20052;-68
2022/01/24 04:14:09;;;;;;;42.90;24.50;;;0.90;99.90;;;;;;5049993;28;20475;-67
2022/01/24 04:23:44;;;;;;;44.40;25.58;;;0.90;99.90;;;;;;5049924;28;20037;-67
2022/01/24 04:26:48;;;;;;;40.65;22.85;;;1.00;99.90;;;;;;5049452;28;20045;-67
2022/01/24 04:29:53;;;;;;;34.97;20.75;;;0.90;99.90;;;;;;5049312;28;20498;-67
2022/01/24 04:32:57;;;;;;;35.40;19.33;;;0.90;99.90;;;;;;5050631;28;20522;-67
2022/01/24 04:36:01;;;;;;;36.35;18.90;;;0.90;99.90;;;;;;5055607;28;20056;-67
2022/01/24 04:39:05;;;;;;;28.83;15.13;;;0.90;99.90;;;;;;5053400;28;20060;-67
2022/01/24 04:42:16;;;;;;;30.73;18.02;;;0.90;99.90;;;;;;5052739;28;20052;-67
2022/01/24 04:45:53;;;;;;;27.27;16.67;;;0.80;99.90;;;;;;5054676;28;20040;-67
2022/01/24 04:52:30;;;;;;;33.05;18.80;;;0.60;99.90;;;;;;5053825;28;20048;-67
2022/01/24 04:55:34;;;;;;;35.05;20.52;;;0.40;99.90;;;;;;5057207;28;20047;-67
2022/01/24 04:58:38;;;;;;;38.35;20.00;;;0.30;99.90;;;;;;5053048;28;20478;-67
2022/01/24 05:01:43;;;;;;;35.08;18.58;;;0.10;99.90;;;;;;5052564;28;20048;-67
2022/01/24 05:04:47;;;;;;;80.25;20.73;;;-0.10;99.90;;;;;;5052917;28;20503;-67
2022/01/24 05:07:51;;;;;;;202.90;25.88;;;-0.20;99.90;;;;;;5053039;28;20052;-67
2022/01/24 05:11:04;;;;;;;348.58;36.28;;;-0.20;99.90;;;;;;5052983;28;20107;-67
2022/01/24 05:24:15;;;;;;;225.93;31.50;;;-0.40;99.90;;;;;;5053435;28;20396;-67
2022/01/24 05:27:19;;;;;;;363.92;43.85;;;-0.60;99.90;;;;;;5052878;28;20052;-67
2022/01/24 05:30:23;;;;;;;296.40;38.67;;;-0.80;99.90;;;;;;5052459;28;20048;-67
2022/01/24 05:33:29;;;;;;;185.00;31.98;;;-0.90;99.90;;;;;;5053023;28;20044;-67
2022/01/24 05:36:32;;;;;;;43.60;25.15;;;-0.90;99.90;;;;;;5052741;28;20064;-67
2022/01/24 05:39:37;;;;;;;69.70;27.83;;;-1.10;99.90;;;;;;5052320;28;20080;-67
2022/01/24 05:42:40;;;;;;;52.22;30.58;;;-1.10;99.90;;;;;;5053588;28;20040;-66
2022/01/24 05:45:45;;;;;;;45.75;26.95;;;-1.10;99.90;;;;;;5051540;28;20047;-66
2022/01/24 05:48:50;;;;;;;49.25;26.05;;;-0.90;99.90;;;;;;5052480;28;20048;-66
2022/01/24 05:51:55;;;;;;;51.05;28.63;;;-0.90;99.90;;;;;;5053031;28;20709;-66
2022/01/24 05:54:59;;;;;;;50.42;30.13;;;-0.70;99.90;;;;;;5052549;28;20052;-66
2022/01/24 05:58:04;;;;;;;53.67;30.58;;;-0.60;99.90;;;;;;5050943;28;20403;-66
2022/01/24 06:01:08;;;;;;;60.28;30.67;;;-0.60;99.90;;;;;;5051711;28;20048;-66
2022/01/24 06:04:14;;;;;;;64.53;34.60;;;-0.50;99.90;;;;;;5052862;28;20055;-66
2022/01/24 06:07:19;;;;;;;125.57;40.25;;;-0.30;99.90;;;;;;5051784;28;20048;-66
2022/01/24 06:10:24;;;;;;;71.40;36.78;;;-0.10;99.90;;;;;;5051779;28;20067;-66
2022/01/24 06:13:29;;;;;;;72.72;38.90;;;0.20;99.90;;;;;;5051740;28;20510;-66
2022/01/24 06:16:33;;;;;;;73.35;39.20;;;0.30;99.90;;;;;;5052328;28;20055;-66
2022/01/24 06:19:37;;;;;;;74.15;38.95;;;0.40;99.90;;;;;;5051077;28;20064;-67
2022/01/24 06:22:41;;;;;;;65.90;34.83;;;0.40;99.90;;;;;;5051723;28;20052;-67
2022/01/24 06:25:46;;;;;;;54.78;29.23;;;0.30;99.90;;;;;;5051550;28;20048;-66
2022/01/24 06:28:50;;;;;;;48.15;26.60;;;0.30;99.90;;;;;;5051126;28;20051;-67
2022/01/24 06:31:55;;;;;;;46.97;25.52;;;0.20;99.90;;;;;;5051359;28;20048;-67
2022/01/24 06:34:59;;;;;;;52.33;27.63;;;0.20;99.90;;;;;;5051681;28;20047;-67
2022/01/24 06:38:03;;;;;;;55.85;31.13;;;0.20;99.90;;;;;;5050717;28;20060;-67
2022/01/24 06:41:07;;;;;;;49.75;27.55;;;0.20;99.90;;;;;;5051127;28;20052;-67
2022/01/24 06:44:11;;;;;;;52.38;27.40;;;0.20;99.90;;;;;;5051345;28;20052;-67
2022/01/24 06:47:15;;;;;;;49.33;27.33;;;0.10;99.90;;;;;;5050786;28;20051;-66
2022/01/24 06:50:19;;;;;;;57.10;28.30;;;0.10;99.90;;;;;;5050976;28;20056;-67
2022/01/24 06:53:24;;;;;;;45.85;28.00;;;0.10;99.90;;;;;;5050990;28;20514;-67
2022/01/24 06:56:29;;;;;;;54.30;29.45;;;0.10;99.90;;;;;;5051118;28;20052;-66
2022/01/24 06:59:33;;;;;;;56.08;32.45;;;0.20;99.90;;;;;;5050597;28;20048;-68
2022/01/24 07:02:38;;;;;;;55.92;30.80;;;0.30;99.90;;;;;;5050821;28;20044;-67
2022/01/24 07:05:41;;;;;;;50.35;26.38;;;0.40;99.90;;;;;;5044919;28;20471;-67
2022/01/24 07:08:46;;;;;;;34.13;20.08;;;0.60;99.90;;;;;;5041472;28;20044;-66
2022/01/24 07:11:53;;;;;;;91.57;42.28;;;0.80;99.90;;;;;;5034744;28;20363;-66
2022/01/24 07:15:03;;;;;;;65.07;32.05;;;1.90;99.90;;;;;;5045359;28;20044;-67
2022/01/24 07:21:18;;;;;;;32.72;19.25;;;6.20;99.90;;;;;;5041016;28;20036;-67
2022/01/24 07:24:23;;;;;;;23.63;15.02;;;7.70;99.90;;;;;;5031961;28;20092;-67
2022/01/24 07:27:29;;;;;;;23.95;14.38;;;8.70;99.90;;;;;;5036587;28;20036;-67
2022/01/24 07:30:34;;;;;;;19.52;12.82;;;8.90;99.90;;;;;;5039454;28;20059;-68
2022/01/24 07:33:40;;;;;;;22.40;11.25;;;9.40;99.90;;;;;;5043903;28;20052;-67
2022/01/24 07:36:44;;;;;;;24.02;12.80;;;10.60;99.90;;;;;;5042027;28;20044;-68
2022/01/24 07:39:49;;;;;;;19.90;13.07;;;12.00;99.90;;;;;;5034620;28;20056;-67
2022/01/24 07:43:08;;;;;;;19.75;13.30;;;12.40;99.90;;;;;;5041925;28;20115;-68
2022/01/24 07:46:13;;;;;;;17.48;13.10;;;12.30;99.40;;;;;;5042565;28;20498;-68
2022/01/24 07:49:17;;;;;;;22.95;15.35;;;13.10;98.90;;;;;;5040100;28;20052;-68
2022/01/24 07:52:21;;;;;;;21.10;14.43;;;13.20;97.00;;;;;;5049044;28;20438;-68
2022/01/24 07:55:26;;;;;;;21.63;15.15;;;12.00;98.10;;;;;;5051239;28;20044;-68
2022/01/24 07:58:30;;;;;;;19.55;14.82;;;13.10;97.10;;;;;;5047532;28;20052;-68
2022/01/24 08:01:35;;;;;;;21.25;13.70;;;13.50;96.90;;;;;;5045180;28;20040;-68
2022/01/24 08:04:40;;;;;;;19.55;14.10;;;14.70;94.90;;;;;;5042740;28;20036;-68
2022/01/24 08:07:46;;;;;;;20.13;15.02;;;15.30;94.00;;;;;;5047972;28;20036;-68
2022/01/24 08:10:50;;;;;;;18.38;14.18;;;16.30;92.90;;;;;;5038065;28;20071;-69
2022/01/24 08:13:54;;;;;;;19.10;15.40;;;17.20;90.10;;;;;;5036726;28;20053;-68
2022/01/24 08:17:00;;;;;;;22.00;17.02;;;17.60;87.50;;;;;;5046615;28;20048;-69
2022/01/24 08:20:05;;;;;;;23.10;17.00;;;18.30;87.20;;;;;;5029609;28;20048;-69
2022/01/24 08:23:09;;;;;;;21.17;16.13;;;18.90;86.40;;;;;;5037531;28;20427;-69
2022/01/24 08:26:13;;;;;;;19.48;15.18;;;19.00;83.30;;;;;;5036744;28;20396;-69
2022/01/24 08:29:17;;;;;;;18.08;15.02;;;19.90;82.60;;;;;;5048460;28;20099;-69
2022/01/24 08:32:21;;;;;;;18.75;15.27;;;20.50;80.60;;;;;;5047108;28;20499;-69
2022/01/24 08:35:27;;;;;;;18.42;16.08;;;19.80;79.10;;;;;;5045914;28;20060;-69
2022/01/24 08:38:35;;;;;;;19.20;16.73;;;20.50;78.00;;;;;;5041372;28;20048;-69
2022/01/24 08:48:04;;;;;;;20.17;17.98;;;20.80;75.50;;;;;;5051067;28;20499;-69
2022/01/24 08:51:08;;;;;;;20.17;17.17;;;21.60;74.80;;;;;;5033681;28;20048;-69
2022/01/24 08:54:13;;;;;;;20.75;16.58;;;22.50;73.80;;;;;;5030865;28;20400;-69
2022/01/24 08:57:25;;;;;;;16.75;14.68;;;23.40;71.60;;;;;;5030285;28;20045;-69
2022/01/24 09:00:29;;;;;;;19.02;16.58;;;22.40;67.70;;;;;;5044176;28;20518;-69
2022/01/24 09:03:38;;;;;;;22.88;18.80;;;20.60;70.80;;;;;;5033645;28;20041;-70
2022/01/24 09:06:43;;;;;;;23.08;18.45;;;18.50;73.80;;;;;;5047938;28;20048;-69
2022/01/24 09:09:48;;;;;;;19.40;17.35;;;19.80;72.80;;;;;;5042960;28;20052;-69
2022/01/24 09:12:52;;;;;;;20.13;17.90;;;21.60;71.60;;;;;;5046689;28;20501;-69
2022/01/24 09:15:56;;;;;;;20.20;17.05;;;23.10;70.00;;;;;;5044951;28;20391;-69
2022/01/24 09:19:00;;;;;;;18.30;15.27;;;24.80;68.50;;;;;;5045088;28;20048;-67
2022/01/24 09:22:04;;;;;;;18.70;15.95;;;25.70;65.20;;;;;;5033953;28;20063;-67
2022/01/24 09:25:12;;;;;;;17.90;15.95;;;25.20;66.10;;;;;;5042144;28;20044;-68
2022/01/24 09:28:17;;;;;;;17.17;15.32;;;25.90;65.10;;;;;;5047838;28;20048;-68
2022/01/24 09:31:22;;;;;;;17.20;15.40;;;26.00;64.70;;;;;;5053125;28;20506;-67
2022/01/24 09:34:26;;;;;;;31.88;16.73;;;26.60;64.40;;;;;;5053936;28;20052;-68
2022/01/24 09:37:30;;;;;;;17.20;15.02;;;27.60;63.20;;;;;;5050422;28;20390;-67
2022/01/24 09:40:36;;;;;;;17.25;15.23;;;27.50;62.40;;;;;;5050600;28;20044;-67
2022/01/24 09:43:43;;;;;;;18.35;16.45;;;26.20;62.30;;;;;;5048496;28;20047;-67
2022/01/24 09:46:48;;;;;;;17.70;15.50;;;25.00;62.90;;;;;;5042589;28;20039;-67
2022/01/24 09:49:52;;;;;;;18.00;15.70;;;25.60;62.70;;;;;;5046392;28;20071;-68
2022/01/24 09:52:58;;;;;;;20.17;17.08;;;25.10;62.20;;;;;;5047252;28;20506;-67
2022/01/24 09:56:05;;;;;;;17.75;15.57;;;24.90;63.50;;;;;;5044795;28;20049;-67
2022/01/24 09:59:09;;;;;;;16.35;14.65;;;26.00;62.60;;;;;;5048746;28;20052;-67
2022/01/24 10:02:13;;;;;;;16.05;14.35;;;26.80;61.90;;;;;;5050801;28;20052;-67
2022/01/24 10:05:30;;;;;;;14.70;12.25;;;26.70;61.30;;;;;;5046226;28;20040;-68
2022/01/24 10:08:36;;;;;;;13.18;10.98;;;27.40;60.70;;;;;;5046176;28;20056;-68
2022/01/24 10:11:50;;;;;;;14.68;10.40;;;27.50;60.10;;;;;;5044963;28;20052;-67
2022/01/24 10:18:26;;;;;;;16.35;13.65;;;27.70;60.50;;;;;;5049751;28;20051;-68
2022/01/24 10:21:50;;;;;;;13.95;12.27;;;27.30;60.70;;;;;;5032498;28;20064;-67
2022/01/24 10:24:56;;;;;;;15.20;13.65;;;29.10;57.80;;;;;;5050626;28;20051;-68
2022/01/24 10:28:05;;;;;;;15.85;14.20;;;28.60;58.20;;;;;;5048402;28;20503;-67
2022/01/24 10:31:12;;;;;;;17.23;14.57;;;27.50;58.70;;;;;;5038425;28;20138;-67
2022/01/24 10:37:23;;;;;;;17.55;14.23;;;25.00;60.30;;;;;;5046260;28;20051;-67
2022/01/24 10:40:44;;;;;;;20.77;14.90;;;23.90;60.90;;;;;;5046077;28;20052;-67
2022/01/24 10:43:56;;;;;;;17.85;13.02;;;20.90;62.70;;;;;;5037797;28;20055;-67
2022/01/24 10:47:32;;;;;;;18.42;14.50;;;20.60;65.00;;;;;;5041852;28;20056;-67
2022/01/24 10:50:36;;;;;;;19.15;15.20;;;21.70;64.50;;;;;;5041145;28;20044;-67
2022/01/24 10:53:54;;;;;;;19.48;16.30;;;20.80;64.90;;;;;;5047269;28;20059;-67
2022/01/24 10:56:58;;;;;;;19.85;16.02;;;19.40;66.90;;;;;;5031508;28;20052;-69
2022/01/24 11:00:29;;;;;;;25.83;18.20;;;18.10;68.10;;;;;;5030789;28;20503;-69
2022/01/24 11:03:33;;;;;;;22.90;17.33;;;19.60;69.10;;;;;;5031924;28;20052;-69
2022/01/24 11:06:40;;;;;;;20.98;16.70;;;20.10;66.70;;;;;;5043658;28;20040;-69
2022/01/24 11:09:44;;;;;;;24.48;19.83;;;21.10;64.90;;;;;;5033712;28;20499;-69
2022/01/24 11:12:49;;;;;;;22.30;17.55;;;19.60;67.30;;;;;;5046638;28;20380;-68
2022/01/24 11:15:55;;;;;;;25.85;20.02;;;20.80;65.10;;;;;;5042750;28;20052;-67
2022/01/24 11:19:01;;;;;;;25.77;19.52;;;17.80;70.10;;;;;;5030917;28;20045;-66
2022/01/24 11:22:08;;;;;;;25.08;19.42;;;19.30;67.60;;;;;;5030616;28;20045;-67
2022/01/24 11:25:14;;;;;;;24.88;18.60;;;19.60;66.10;;;;;;5030965;28;20503;-67
2022/01/24 11:28:18;;;;;;;22.83;17.30;;;19.20;67.30;;;;;;5030506;28;20036;-67
2022/01/24 11:31:33;;;;;;;19.35;14.55;;;22.10;65.10;;;;;;5031423;28;20079;-67
2022/01/24 11:34:40;;;;;;;13.90;9.77;;;22.40;62.30;;;;;;5036095;28;20044;-67
2022/01/24 11:37:46;;;;;;;15.10;10.02;;;23.90;60.50;;;;;;5039582;28;20514;-67
2022/01/24 11:40:57;;;;;;;15.95;12.75;;;24.90;60.10;;;;;;5045695;28;20048;-67
2022/01/24 11:44:09;;;;;;;14.35;11.35;;;24.10;58.70;;;;;;5034223;28;20053;-67
2022/01/24 11:47:21;;;;;;;16.10;11.68;;;24.50;61.20;;;;;;5047406;28;20095;-67
2022/01/24 11:50:26;;;;;;;15.02;11.45;;;26.70;59.80;;;;;;5041225;28;20044;-67
2022/01/24 11:53:33;;;;;;;13.13;10.45;;;28.20;57.70;;;;;;5043305;28;20060;-68
2022/01/24 11:56:38;;;;;;;12.82;10.00;;;29.10;56.80;;;;;;5041606;28;20036;-68
2022/01/24 11:59:42;;;;;;;12.90;10.23;;;28.50;56.00;;;;;;5029309;28;20057;-68
2022/01/24 12:02:55;;;;;;;14.77;11.13;;;27.90;57.10;;;;;;5048420;28;20044;-68
2022/01/24 12:06:09;;;;;;;13.63;10.40;;;24.80;56.20;;;;;;5049114;28;20044;-67
2022/01/24 12:09:24;;;;;;;15.02;10.80;;;25.50;59.00;;;;;;5047446;28;20028;-68
2022/01/24 12:12:48;;;;;;;14.85;12.13;;;23.80;59.40;;;;;;5039202;28;20392;-68
2022/01/24 12:16:07;;;;;;;16.38;12.55;;;23.40;58.70;;;;;;5030068;28;20052;-67
2022/01/24 12:19:12;;;;;;;17.30;13.55;;;22.60;62.40;;;;;;5030187;28;20545;-67
2022/01/24 12:22:37;;;;;;;17.75;13.40;;;25.10;59.60;;;;;;5042902;28;20048;-68
2022/01/24 12:25:48;;;;;;;15.15;12.20;;;26.30;59.50;;;;;;5046398;28;20507;-68
2022/01/24 12:29:01;;;;;;;13.43;10.65;;;27.90;58.50;;;;;;5049185;28;20387;-67
2022/01/24 12:32:27;;;;;;;15.18;11.75;;;29.40;57.10;;;;;;5042660;28;20064;-67
2022/01/24 12:35:32;;;;;;;14.70;10.52;;;26.40;57.50;;;;;;5035591;28;20044;-68
2022/01/24 12:38:44;;;;;;;14.15;10.45;;;27.70;56.80;;;;;;5029553;28;20053;-68
2022/01/24 12:42:00;;;;;;;12.77;10.13;;;27.80;57.10;;;;;;5038452;28;20036;-67
2022/01/24 12:48:48;;;;;;;15.32;11.00;;;28.30;57.00;;;;;;5042785;28;20056;-68
2022/01/24 12:51:53;;;;;;;14.02;10.15;;;27.30;58.00;;;;;;5033145;28;20671;-68
2022/01/24 12:55:00;;;;;;;12.50;10.10;;;28.30;57.20;;;;;;5049311;28;20048;-67
2022/01/24 12:58:04;;;;;;;15.10;10.85;;;27.70;57.30;;;;;;5046100;28;20057;-67
2022/01/24 13:01:31;;;;;;;15.27;11.85;;;24.60;58.00;;;;;;5042214;28;20047;-68
2022/01/24 13:04:38;;;;;;;16.45;12.07;;;24.70;59.10;;;;;;5048461;28;20045;-67
2022/01/24 13:07:55;;;;;;;14.68;11.25;;;25.30;60.30;;;;;;5052020;28;20261;-67
2022/01/24 13:11:01;;;;;;;14.43;10.27;;;26.20;58.10;;;;;;5036250;28;20032;-67
2022/01/24 13:14:13;;;;;;;14.07;9.73;;;25.20;58.60;;;;;;5049067;28;20052;-67
2022/01/24 13:21:07;;;;;;;13.20;10.27;;;23.60;61.80;;;;;;5034249;28;20045;-68
2022/01/24 13:24:10;;;;;;;13.95;9.43;;;22.50;63.00;;;;;;5040946;28;20064;-66
2022/01/24 13:27:14;;;;;;;11.23;7.72;;;21.50;61.00;;;;;;5039703;28;20599;-69
2022/01/24 13:30:29;;;;;;;10.98;8.52;;;21.40;63.00;;;;;;5039716;28;20040;-67
2022/01/24 13:33:38;;;;;;;13.57;8.75;;;21.30;63.10;;;;;;5045012;28;20033;-68
2022/01/24 13:36:42;;;;;;;17.50;8.57;;;22.20;63.20;;;;;;5043398;28;20060;-68
2022/01/24 13:39:53;;;;;;;12.90;9.15;;;23.70;60.60;;;;;;5041433;28;20044;-68
2022/01/24 13:42:57;;;;;;;13.07;8.10;;;24.50;59.70;;;;;;5046052;28;20040;-69
2022/01/24 13:46:08;;;;;;;12.13;7.93;;;24.60;59.60;;;;;;5036367;28;20124;-67
2022/01/24 13:49:16;;;;;;;11.40;6.95;;;25.30;59.90;;;;;;5035369;28;20048;-67
2022/01/24 13:52:21;;;;;;;11.13;7.20;;;26.40;59.70;;;;;;5051001;28;20052;-67
2022/01/24 13:55:27;;;;;;;9.13;7.00;;;27.10;57.80;;;;;;5050312;28;20048;-67
2022/01/24 13:58:33;;;;;;;11.00;7.85;;;26.50;58.10;;;;;;5046071;28;20036;-67
2022/01/24 14:02:01;;;;;;;10.50;6.78;;;24.60;58.30;;;;;;5039568;28;20396;-67
2022/01/24 14:05:06;;;;;;;9.20;6.40;;;24.30;59.80;;;;;;5041250;28;20384;-67
2022/01/24 14:08:17;;;;;;;8.90;6.88;;;24.60;59.40;;;;;;5034919;28;20063;-67
2022/01/24 14:11:21;;;;;;;11.45;6.88;;;24.90;58.40;;;;;;5036115;28;20396;-67
2022/01/24 14:14:37;;;;;;;11.85;6.75;;;25.20;58.90;;;;;;5052108;28;20048;-67
2022/01/24 14:18:05;;;;;;;11.38;7.22;;;22.90;58.90;;;;;;5032563;28;20048;-68
2022/01/24 14:21:12;;;;;;;11.75;6.78;;;22.30;61.40;;;;;;5037126;28;20048;-69
2022/01/24 14:24:17;;;;;;;12.60;7.03;;;23.30;61.40;;;;;;5034375;28;20044;-69
2022/01/24 14:27:42;;;;;;;9.82;6.75;;;22.30;60.60;;;;;;5051208;28;20498;-68
2022/01/24 14:30:47;;;;;;;14.32;6.75;;;23.00;60.80;;;;;;5046672;28;20376;-68
2022/01/24 14:33:59;;;;;;;11.10;7.35;;;21.30;62.40;;;;;;5042234;28;20067;-68
2022/01/24 14:37:05;;;;;;;11.60;6.75;;;20.70;62.50;;;;;;5035137;28;20049;-68
2022/01/24 14:40:13;;;;;;;10.45;7.13;;;21.80;62.60;;;;;;5037022;28;20047;-69
2022/01/24 14:46:48;;;;;;;14.35;7.38;;;22.70;62.60;;;;;;5044366;28;20044;-69
2022/01/24 14:49:54;;;;;;;10.98;6.35;;;23.10;61.70;;;;;;5035277;28;20061;-69
2022/01/24 14:53:03;;;;;;;13.38;7.22;;;22.80;62.20;;;;;;5032473;28;20495;-69
2022/01/24 14:56:07;;;;;;;13.00;7.57;;;22.20;62.30;;;;;;5032510;28;20779;-68
2022/01/24 14:59:12;;;;;;;16.50;7.88;;;21.30;63.00;;;;;;5033929;28;20048;-68
2022/01/24 15:02:16;;;;;;;12.60;6.95;;;21.50;64.90;;;;;;5045709;28;20048;-69
2022/01/24 15:05:22;;;;;;;10.55;5.47;;;21.70;63.90;;;;;;5049184;28;20048;-66
2022/01/24 15:08:27;;;;;;;8.77;4.72;;;18.80;62.70;;;;;;5048621;28;20103;-66
2022/01/24 15:11:32;;;;;;;7.45;4.72;;;18.00;65.90;;;;;;5038189;28;20380;-68
2022/01/24 15:14:42;;;;;;;8.20;4.30;;;16.80;67.80;;;;;;5047681;28;20040;-68
2022/01/24 15:27:33;;;;;;;11.35;3.85;;;14.70;71.30;;;;;;5046707;28;19920;-67
2022/01/24 15:30:38;;;;;;;7.90;3.58;;;13.60;74.30;;;;;;5039307;28;20068;-68
2022/01/24 15:33:42;;;;;;;8.40;3.65;;;12.90;74.90;;;;;;5030464;28;20045;-67
2022/01/24 15:36:49;;;;;;;10.18;4.07;;;13.60;74.10;;;;;;5031501;28;20049;-68
2022/01/24 15:39:54;;;;;;;5.75;3.35;;;13.50;75.10;;;;;;5039667;28;20048;-68
2022/01/24 15:46:50;;;;;;;6.10;3.42;;;13.70;74.60;;;;;;5033738;28;20037;-68
2022/01/24 15:50:03;;;;;;;10.00;3.33;;;13.50;75.30;;;;;;5042835;28;20060;-68
2022/01/24 15:53:08;;;;;;;8.23;3.33;;;13.90;75.90;;;;;;5045311;28;20036;-68
2022/01/24 15:59:39;;;;;;;14.73;4.50;;;13.50;76.70;;;;;;5042095;28;20055;-68
2022/01/24 16:02:46;;;;;;;9.52;3.75;;;13.10;78.10;;;;;;5050767;28;20048;-68
2022/01/24 16:05:50;;;;;;;11.05;4.55;;;12.60;79.50;;;;;;5030688;28;20036;-68
2022/01/24 16:08:54;;;;;;;9.52;4.50;;;12.00;80.40;;;;;;5045891;28;20048;-67
2022/01/24 16:11:59;;;;;;;9.80;4.90;;;11.40;82.20;;;;;;5050569;28;20517;-68
2022/01/24 16:15:05;;;;;;;11.20;4.90;;;10.90;83.70;;;;;;5031583;28;20044;-67
2022/01/24 16:18:14;;;;;;;10.02;4.10;;;10.30;85.50;;;;;;5030691;28;20052;-68
2022/01/24 16:27:36;;;;;;;10.70;4.60;;;9.50;89.20;;;;;;5030984;28;20037;-67
2022/01/24 16:30:46;;;;;;;14.73;4.82;;;9.10;90.30;;;;;;5033970;28;20041;-68
2022/01/24 16:33:50;;;;;;;11.23;4.88;;;8.90;90.80;;;;;;5034016;28;20044;-67
2022/01/24 16:36:57;;;;;;;12.30;5.35;;;8.90;91.10;;;;;;5035157;28;20411;-67
2022/01/24 16:40:11;;;;;;;13.93;5.18;;;8.90;91.60;;;;;;5033653;28;20400;-68
2022/01/24 16:43:36;;;;;;;20.38;8.85;;;8.80;92.00;;;;;;5034059;28;20056;-68
2022/01/24 16:50:02;;;;;;;25.65;16.98;;;8.70;93.80;;;;;;5033240;28;20044;-68
2022/01/24 16:53:12;;;;;;;39.30;23.27;;;8.50;95.00;;;;;;5033557;28;20496;-68
2022/01/24 16:56:16;;;;;;;45.58;27.45;;;8.40;96.20;;;;;;5034562;28;20045;-68
2022/01/24 16:59:21;;;;;;;15.13;9.80;;;8.20;97.30;;;;;;5035152;28;20052;-68
2022/01/24 17:02:25;;;;;;;18.30;9.93;;;8.20;97.40;;;;;;5035914;28;20044;-68
2022/01/24 17:05:29;;;;;;;20.30;9.73;;;8.10;98.10;;;;;;5033262;28;20044;-68
2022/01/24 17:08:36;;;;;;;16.52;9.95;;;8.10;97.90;;;;;;5033193;28;20037;-68
2022/01/24 17:11:44;;;;;;;17.05;11.65;;;8.10;98.40;;;;;;5033330;28;20037;-68
2022/01/24 17:14:53;;;;;;;65.38;34.30;;;8.00;99.10;;;;;;5033920;28;20392;-68
2022/01/24 17:17:57;;;;;;;39.42;22.80;;;7.80;99.90;;;;;;5033282;28;20037;-68
2022/01/24 17:21:02;;;;;;;21.63;11.25;;;7.80;99.90;;;;;;5033670;28;20048;-67
2022/01/24 17:24:08;;;;;;;12.88;7.22;;;7.70;99.90;;;;;;5034947;28;20052;-68
2022/01/24 17:27:13;;;;;;;17.88;9.65;;;7.70;99.90;;;;;;5034745;28;20040;-68
2022/01/24 17:30:17;;;;;;;12.15;6.03;;;7.60;99.90;;;;;;5033215;28;20052;-68
2022/01/24 17:33:22;;;;;;;13.48;7.45;;;7.60;99.90;;;;;;5034098;28;20060;-68
2022/01/24 17:36:26;;;;;;;20.75;15.05;;;7.60;99.90;;;;;;5033022;28;20049;-68
2022/01/24 17:39:32;;;;;;;16.70;7.25;;;7.50;99.90;;;;;;5032593;28;20507;-68
2022/01/24 17:42:36;;;;;;;15.57;7.70;;;7.30;99.90;;;;;;5032905;28;20411;-68
2022/01/24 17:45:41;;;;;;;12.73;6.93;;;7.10;99.90;;;;;;5033017;28;20052;-68
2022/01/24 17:48:46;;;;;;;13.07;6.45;;;7.10;99.90;;;;;;5034065;28;20053;-67
2022/01/24 17:51:50;;;;;;;13.98;9.07;;;7.00;99.90;;;;;;5032653;28;20036;-67
2022/01/24 17:54:54;;;;;;;14.13;7.72;;;7.00;99.90;;;;;;5032830;28;20052;-68
2022/01/24 17:57:59;;;;;;;15.13;7.50;;;6.90;99.90;;;;;;5033266;28;20591;-68
2022/01/24 18:01:03;;;;;;;15.98;7.25;;;6.80;99.90;;;;;;5032731;28;20048;-68
2022/01/24 18:04:07;;;;;;;16.83;9.35;;;6.60;99.90;;;;;;5032522;28;20048;-68
2022/01/24 18:07:11;;;;;;;24.95;15.00;;;6.50;99.90;;;;;;5033587;28;20064;-68
2022/01/24 18:10:18;;;;;;;24.30;11.40;;;6.50;99.90;;;;;;5032028;28;20232;-67
2022/01/24 18:13:22;;;;;;;39.55;20.48;;;6.40;99.90;;;;;;5032264;28;20068;-68
2022/01/24 18:16:25;;;;;;;19.10;9.15;;;6.30;99.90;;;;;;5032814;28;20057;-68